sensor_id;sensor_type;location;lat;lon;timestamp;temperature;humidity
25640;DHT22;13497;48.322;16.204;2023-05-07T00:01:49;13.30;99.90
25640;DHT22;13497;48.322;16.204;2023-05-07T00:04:15;13.30;99.90
25640;DHT22;13497;48.322;16.204;2023-05-07T00:06:41;13.30;99.90
25640;DHT22;13497;48.322;16.204;2023-05-07T00:09:07;13.30;99.90
25640;DHT22;13497;48.322;16.204;2023-05-07T00:11:33;13.20;99.90
25640;DHT22;13497;48.322;16.204;2023-05-07T00:13:58;13.20;99.90
25640;DHT22;13497;48.322;16.204;2023-05-07T00:16:25;13.10;99.90
25640;DHT22;13497;48.322;16.204;2023-05-07T00:18:52;13.00;99.90
25640;DHT22;13497;48.322;16.204;2023-05-07T00:21:18;12.90;99.90
25640;DHT22;13497;48.322;16.204;2023-05-07T00:23:43;12.80;99.90
25640;DHT22;13497;48.322;16.204;2023-05-07T00:26:09;12.80;99.90
25640;DHT22;13497;48.322;16.204;2023-05-07T00:28:34;12.90;99.90
25640;DHT22;13497;48.322;16.204;2023-05-07T00:31:00;12.90;99.90
25640;DHT22;13497;48.322;16.204;2023-05-07T00:33:26;12.90;99.90
25640;DHT22;13497;48.322;16.204;2023-05-07T00:35:52;12.70;99.90
25640;DHT22;13497;48.322;16.204;2023-05-07T00:38:19;12.80;99.90
25640;DHT22;13497;48.322;16.204;2023-05-07T00:40:46;12.80;99.90
25640;DHT22;13497;48.322;16.204;2023-05-07T00:43:12;12.80;99.90
25640;DHT22;13497;48.322;16.204;2023-05-07T00:45:38;12.80;99.90
25640;DHT22;13497;48.322;16.204;2023-05-07T00:48:04;12.80;99.90
25640;DHT22;13497;48.322;16.204;2023-05-07T00:50:31;12.80;99.90
25640;DHT22;13497;48.322;16.204;2023-05-07T00:52:58;12.70;99.90
25640;DHT22;13497;48.322;16.204;2023-05-07T00:55:25;12.70;99.90
25640;DHT22;13497;48.322;16.204;2023-05-07T00:57:51;12.70;99.90
25640;DHT22;13497;48.322;16.204;2023-05-07T01:00:17;12.70;99.90
25640;DHT22;13497;48.322;16.204;2023-05-07T01:02:43;12.70;99.90
25640;DHT22;13497;48.322;16.204;2023-05-07T01:05:11;12.70;99.90
25640;DHT22;13497;48.322;16.204;2023-05-07T01:07:39;12.70;99.90
25640;DHT22;13497;48.322;16.204;2023-05-07T01:10:06;12.60;99.90
25640;DHT22;13497;48.322;16.204;2023-05-07T01:12:33;12.60;99.90
25640;DHT22;13497;48.322;16.204;2023-05-07T01:14:59;12.60;99.90
25640;DHT22;13497;48.322;16.204;2023-05-07T01:17:26;12.60;99.90
25640;DHT22;13497;48.322;16.204;2023-05-07T01:19:51;12.60;99.90
25640;DHT22;13497;48.322;16.204;2023-05-07T01:22:51;12.60;99.90
25640;DHT22;13497;48.322;16.204;2023-05-07T01:25:10;12.60;99.90
25640;DHT22;13497;48.322;16.204;2023-05-07T01:27:36;12.60;99.90
25640;DHT22;13497;48.322;16.204;2023-05-07T01:30:05;12.60;99.90
25640;DHT22;13497;48.322;16.204;2023-05-07T01:32:49;12.60;99.90
25640;DHT22;13497;48.322;16.204;2023-05-07T01:35:22;12.50;99.90
25640;DHT22;13497;48.322;16.204;2023-05-07T01:37:48;12.60;99.90
25640;DHT22;13497;48.322;16.204;2023-05-07T01:40:15;12.50;99.90
25640;DHT22;13497;48.322;16.204;2023-05-07T01:42:43;12.50;99.90
25640;DHT22;13497;48.322;16.204;2023-05-07T01:45:09;12.60;99.90
25640;DHT22;13497;48.322;16.204;2023-05-07T01:47:36;12.60;99.90
25640;DHT22;13497;48.322;16.204;2023-05-07T01:50:04;12.60;99.90
25640;DHT22;13497;48.322;16.204;2023-05-07T01:52:31;12.60;99.90
25640;DHT22;13497;48.322;16.204;2023-05-07T01:54:56;12.60;99.90
25640;DHT22;13497;48.322;16.204;2023-05-07T01:57:22;12.60;99.90
25640;DHT22;13497;48.322;16.204;2023-05-07T01:59:48;12.50;99.90
25640;DHT22;13497;48.322;16.204;2023-05-07T02:02:13;12.60;99.90
25640;DHT22;13497;48.322;16.204;2023-05-07T02:04:39;12.50;99.90
25640;DHT22;13497;48.322;16.204;2023-05-07T02:07:05;12.50;99.90
25640;DHT22;13497;48.322;16.204;2023-05-07T02:09:30;12.60;99.90
25640;DHT22;13497;48.322;16.204;2023-05-07T02:11:56;12.60;99.90
25640;DHT22;13497;48.322;16.204;2023-05-07T02:14:21;12.60;99.90
25640;DHT22;13497;48.322;16.204;2023-05-07T02:16:47;12.70;99.90
25640;DHT22;13497;48.322;16.204;2023-05-07T02:19:13;12.70;99.90
25640;DHT22;13497;48.322;16.204;2023-05-07T02:21:38;12.70;99.90
25640;DHT22;13497;48.322;16.204;2023-05-07T02:24:05;12.60;99.90
25640;DHT22;13497;48.322;16.204;2023-05-07T02:26:30;12.60;99.90
25640;DHT22;13497;48.322;16.204;2023-05-07T02:28:57;12.50;99.90
25640;DHT22;13497;48.322;16.204;2023-05-07T02:31:22;12.50;99.90
25640;DHT22;13497;48.322;16.204;2023-05-07T02:33:48;12.50;99.90
25640;DHT22;13497;48.322;16.204;2023-05-07T02:36:13;12.50;99.90
25640;DHT22;13497;48.322;16.204;2023-05-07T02:38:39;12.50;99.90
25640;DHT22;13497;48.322;16.204;2023-05-07T02:41:05;12.50;99.90
25640;DHT22;13497;48.322;16.204;2023-05-07T02:43:30;12.40;99.90
25640;DHT22;13497;48.322;16.204;2023-05-07T02:46:07;12.30;99.90
25640;DHT22;13497;48.322;16.204;2023-05-07T02:48:33;12.30;99.90
25640;DHT22;13497;48.322;16.204;2023-05-07T02:51:00;12.20;99.90
25640;DHT22;13497;48.322;16.204;2023-05-07T02:53:26;12.10;99.90
25640;DHT22;13497;48.322;16.204;2023-05-07T02:55:53;12.10;99.90
25640;DHT22;13497;48.322;16.204;2023-05-07T02:58:19;12.00;99.90
25640;DHT22;13497;48.322;16.204;2023-05-07T03:00:45;12.00;99.90
25640;DHT22;13497;48.322;16.204;2023-05-07T03:03:10;12.10;99.90
25640;DHT22;13497;48.322;16.204;2023-05-07T03:05:36;12.00;99.90
25640;DHT22;13497;48.322;16.204;2023-05-07T03:08:02;12.00;99.90
25640;DHT22;13497;48.322;16.204;2023-05-07T03:10:29;12.00;99.90
25640;DHT22;13497;48.322;16.204;2023-05-07T03:12:55;12.00;99.90
25640;DHT22;13497;48.322;16.204;2023-05-07T03:15:21;12.00;99.90
25640;DHT22;13497;48.322;16.204;2023-05-07T03:17:47;11.90;99.90
25640;DHT22;13497;48.322;16.204;2023-05-07T03:20:13;11.90;99.90
25640;DHT22;13497;48.322;16.204;2023-05-07T03:22:39;11.80;99.90
25640;DHT22;13497;48.322;16.204;2023-05-07T03:25:06;11.70;99.90
25640;DHT22;13497;48.322;16.204;2023-05-07T03:27:32;11.60;99.90
25640;DHT22;13497;48.322;16.204;2023-05-07T03:29:57;11.60;99.90
25640;DHT22;13497;48.322;16.204;2023-05-07T03:32:23;11.60;99.90
25640;DHT22;13497;48.322;16.204;2023-05-07T03:34:49;11.70;99.90
25640;DHT22;13497;48.322;16.204;2023-05-07T03:37:14;11.70;99.90
25640;DHT22;13497;48.322;16.204;2023-05-07T03:39:40;11.60;99.90
25640;DHT22;13497;48.322;16.204;2023-05-07T03:42:06;11.70;99.90
25640;DHT22;13497;48.322;16.204;2023-05-07T03:44:31;11.70;99.90
25640;DHT22;13497;48.322;16.204;2023-05-07T03:46:57;11.70;99.90
25640;DHT22;13497;48.322;16.204;2023-05-07T03:49:23;11.70;99.90
25640;DHT22;13497;48.322;16.204;2023-05-07T03:51:48;11.80;99.90
25640;DHT22;13497;48.322;16.204;2023-05-07T03:54:14;11.80;99.90
25640;DHT22;13497;48.322;16.204;2023-05-07T03:56:40;11.80;99.90
25640;DHT22;13497;48.322;16.204;2023-05-07T03:59:05;11.80;99.90
25640;DHT22;13497;48.322;16.204;2023-05-07T04:01:31;11.90;99.90
25640;DHT22;13497;48.322;16.204;2023-05-07T04:03:57;12.00;99.90
25640;DHT22;13497;48.322;16.204;2023-05-07T04:06:23;12.10;99.90
25640;DHT22;13497;48.322;16.204;2023-05-07T04:08:48;12.10;99.90
25640;DHT22;13497;48.322;16.204;2023-05-07T04:11:14;12.20;99.90
25640;DHT22;13497;48.322;16.204;2023-05-07T04:13:39;12.40;99.90
25640;DHT22;13497;48.322;16.204;2023-05-07T04:16:05;12.50;99.90
25640;DHT22;13497;48.322;16.204;2023-05-07T04:18:31;12.40;99.90
25640;DHT22;13497;48.322;16.204;2023-05-07T04:20:57;12.50;99.90
25640;DHT22;13497;48.322;16.204;2023-05-07T04:23:23;12.40;99.90
25640;DHT22;13497;48.322;16.204;2023-05-07T04:25:48;12.50;99.90
25640;DHT22;13497;48.322;16.204;2023-05-07T04:28:14;12.70;99.90
25640;DHT22;13497;48.322;16.204;2023-05-07T04:30:40;12.70;99.90
25640;DHT22;13497;48.322;16.204;2023-05-07T04:33:06;12.60;99.90
25640;DHT22;13497;48.322;16.204;2023-05-07T04:35:32;12.70;99.90
25640;DHT22;13497;48.322;16.204;2023-05-07T04:37:58;12.70;99.90
25640;DHT22;13497;48.322;16.204;2023-05-07T04:40:23;12.90;99.90
25640;DHT22;13497;48.322;16.204;2023-05-07T04:42:49;13.10;99.90
25640;DHT22;13497;48.322;16.204;2023-05-07T04:45:15;13.40;99.90
25640;DHT22;13497;48.322;16.204;2023-05-07T04:47:40;13.40;99.90
25640;DHT22;13497;48.322;16.204;2023-05-07T04:50:09;13.60;99.90
25640;DHT22;13497;48.322;16.204;2023-05-07T04:52:36;13.80;99.90
25640;DHT22;13497;48.322;16.204;2023-05-07T04:55:02;13.80;99.90
25640;DHT22;13497;48.322;16.204;2023-05-07T04:57:27;13.80;99.90
25640;DHT22;13497;48.322;16.204;2023-05-07T04:59:54;13.80;99.90
25640;DHT22;13497;48.322;16.204;2023-05-07T05:02:19;13.80;99.90
25640;DHT22;13497;48.322;16.204;2023-05-07T05:04:45;13.70;99.90
25640;DHT22;13497;48.322;16.204;2023-05-07T05:07:11;13.80;99.90
25640;DHT22;13497;48.322;16.204;2023-05-07T05:09:36;13.90;99.90
25640;DHT22;13497;48.322;16.204;2023-05-07T05:12:02;14.00;99.90
25640;DHT22;13497;48.322;16.204;2023-05-07T05:14:28;14.20;99.90
25640;DHT22;13497;48.322;16.204;2023-05-07T05:16:54;14.30;99.90
25640;DHT22;13497;48.322;16.204;2023-05-07T05:19:19;14.40;99.90
25640;DHT22;13497;48.322;16.204;2023-05-07T05:21:45;14.30;99.90
25640;DHT22;13497;48.322;16.204;2023-05-07T05:24:11;14.30;99.90
25640;DHT22;13497;48.322;16.204;2023-05-07T05:26:36;14.40;99.90
25640;DHT22;13497;48.322;16.204;2023-05-07T05:29:02;14.40;99.90
25640;DHT22;13497;48.322;16.204;2023-05-07T05:31:28;14.40;99.90
25640;DHT22;13497;48.322;16.204;2023-05-07T05:33:53;14.50;99.90
25640;DHT22;13497;48.322;16.204;2023-05-07T05:36:19;14.50;99.90
25640;DHT22;13497;48.322;16.204;2023-05-07T05:38:45;14.70;99.90
25640;DHT22;13497;48.322;16.204;2023-05-07T05:41:11;14.80;99.90
25640;DHT22;13497;48.322;16.204;2023-05-07T05:43:37;15.00;99.90
25640;DHT22;13497;48.322;16.204;2023-05-07T05:46:02;15.10;99.90
25640;DHT22;13497;48.322;16.204;2023-05-07T05:48:29;15.30;99.90
25640;DHT22;13497;48.322;16.204;2023-05-07T05:50:55;15.40;99.90
25640;DHT22;13497;48.322;16.204;2023-05-07T05:53:21;15.30;99.90
25640;DHT22;13497;48.322;16.204;2023-05-07T05:55:47;15.30;99.90
25640;DHT22;13497;48.322;16.204;2023-05-07T05:58:12;15.30;99.90
25640;DHT22;13497;48.322;16.204;2023-05-07T06:00:38;15.40;99.90
25640;DHT22;13497;48.322;16.204;2023-05-07T06:03:04;15.40;99.90
25640;DHT22;13497;48.322;16.204;2023-05-07T06:05:29;15.50;99.90
25640;DHT22;13497;48.322;16.204;2023-05-07T06:07:55;15.70;99.90
25640;DHT22;13497;48.322;16.204;2023-05-07T06:10:21;16.00;99.90
25640;DHT22;13497;48.322;16.204;2023-05-07T06:12:47;16.30;99.90
25640;DHT22;13497;48.322;16.204;2023-05-07T06:15:14;16.60;99.90
25640;DHT22;13497;48.322;16.204;2023-05-07T06:17:39;16.80;99.90
25640;DHT22;13497;48.322;16.204;2023-05-07T06:20:06;16.70;99.90
25640;DHT22;13497;48.322;16.204;2023-05-07T06:22:31;16.60;99.90
25640;DHT22;13497;48.322;16.204;2023-05-07T06:24:57;16.60;99.90
25640;DHT22;13497;48.322;16.204;2023-05-07T06:27:23;16.90;99.90
25640;DHT22;13497;48.322;16.204;2023-05-07T06:29:48;16.80;99.90
25640;DHT22;13497;48.322;16.204;2023-05-07T06:32:14;16.80;99.90
25640;DHT22;13497;48.322;16.204;2023-05-07T06:34:41;16.90;99.90
25640;DHT22;13497;48.322;16.204;2023-05-07T06:37:06;16.90;99.90
25640;DHT22;13497;48.322;16.204;2023-05-07T06:39:32;16.80;99.90
25640;DHT22;13497;48.322;16.204;2023-05-07T06:42:00;16.70;99.90
25640;DHT22;13497;48.322;16.204;2023-05-07T06:44:26;16.90;99.90
25640;DHT22;13497;48.322;16.204;2023-05-07T06:46:51;17.00;99.90
25640;DHT22;13497;48.322;16.204;2023-05-07T06:49:17;16.90;99.90
25640;DHT22;13497;48.322;16.204;2023-05-07T06:51:44;16.90;99.90
25640;DHT22;13497;48.322;16.204;2023-05-07T06:54:09;17.00;99.90
25640;DHT22;13497;48.322;16.204;2023-05-07T06:56:35;16.80;99.90
25640;DHT22;13497;48.322;16.204;2023-05-07T06:59:03;16.60;99.90
25640;DHT22;13497;48.322;16.204;2023-05-07T07:01:29;16.60;99.90
25640;DHT22;13497;48.322;16.204;2023-05-07T07:03:55;16.50;99.90
25640;DHT22;13497;48.322;16.204;2023-05-07T07:06:20;16.30;99.90
25640;DHT22;13497;48.322;16.204;2023-05-07T07:08:47;16.40;99.90
25640;DHT22;13497;48.322;16.204;2023-05-07T07:11:13;16.30;99.90
25640;DHT22;13497;48.322;16.204;2023-05-07T07:13:38;16.50;99.90
25640;DHT22;13497;48.322;16.204;2023-05-07T07:16:05;16.70;99.90
25640;DHT22;13497;48.322;16.204;2023-05-07T07:18:31;16.60;99.90
25640;DHT22;13497;48.322;16.204;2023-05-07T07:20:56;16.70;99.90
25640;DHT22;13497;48.322;16.204;2023-05-07T07:23:22;16.90;99.90
25640;DHT22;13497;48.322;16.204;2023-05-07T07:25:49;17.30;99.90
25640;DHT22;13497;48.322;16.204;2023-05-07T07:28:14;17.90;99.90
25640;DHT22;13497;48.322;16.204;2023-05-07T07:30:40;18.60;99.90
25640;DHT22;13497;48.322;16.204;2023-05-07T07:33:06;18.90;99.90
25640;DHT22;13497;48.322;16.204;2023-05-07T07:35:32;19.00;99.90
25640;DHT22;13497;48.322;16.204;2023-05-07T07:37:58;19.20;99.90
25640;DHT22;13497;48.322;16.204;2023-05-07T07:40:24;19.10;99.90
25640;DHT22;13497;48.322;16.204;2023-05-07T07:42:50;19.10;99.90
25640;DHT22;13497;48.322;16.204;2023-05-07T07:45:16;19.10;99.90
25640;DHT22;13497;48.322;16.204;2023-05-07T07:47:42;19.10;99.90
25640;DHT22;13497;48.322;16.204;2023-05-07T07:50:08;18.80;99.90
25640;DHT22;13497;48.322;16.204;2023-05-07T07:52:34;18.80;99.90
25640;DHT22;13497;48.322;16.204;2023-05-07T07:55:00;18.60;99.90
25640;DHT22;13497;48.322;16.204;2023-05-07T07:57:26;18.60;99.90
25640;DHT22;13497;48.322;16.204;2023-05-07T07:59:51;18.90;99.90
25640;DHT22;13497;48.322;16.204;2023-05-07T08:02:17;18.80;99.90
25640;DHT22;13497;48.322;16.204;2023-05-07T08:04:43;18.80;99.90
25640;DHT22;13497;48.322;16.204;2023-05-07T08:07:11;18.90;99.90
25640;DHT22;13497;48.322;16.204;2023-05-07T08:09:38;19.10;99.90
25640;DHT22;13497;48.322;16.204;2023-05-07T08:12:07;19.00;99.90
25640;DHT22;13497;48.322;16.204;2023-05-07T08:14:34;18.90;99.90
25640;DHT22;13497;48.322;16.204;2023-05-07T08:17:00;18.90;99.90
25640;DHT22;13497;48.322;16.204;2023-05-07T08:19:26;18.80;99.90
25640;DHT22;13497;48.322;16.204;2023-05-07T08:21:51;18.80;99.90
25640;DHT22;13497;48.322;16.204;2023-05-07T08:24:18;18.90;99.90
25640;DHT22;13497;48.322;16.204;2023-05-07T08:26:44;18.80;99.90
25640;DHT22;13497;48.322;16.204;2023-05-07T08:29:10;18.90;99.90
25640;DHT22;13497;48.322;16.204;2023-05-07T08:31:36;19.30;99.90
25640;DHT22;13497;48.322;16.204;2023-05-07T08:34:04;19.40;99.90
25640;DHT22;13497;48.322;16.204;2023-05-07T08:36:30;19.60;99.90
25640;DHT22;13497;48.322;16.204;2023-05-07T08:38:56;19.40;99.90
25640;DHT22;13497;48.322;16.204;2023-05-07T08:41:21;19.30;99.90
25640;DHT22;13497;48.322;16.204;2023-05-07T08:43:49;19.10;99.90
25640;DHT22;13497;48.322;16.204;2023-05-07T08:46:21;19.10;99.90
25640;DHT22;13497;48.322;16.204;2023-05-07T08:48:50;19.20;99.90
25640;DHT22;13497;48.322;16.204;2023-05-07T08:51:18;19.70;99.90
25640;DHT22;13497;48.322;16.204;2023-05-07T08:53:45;19.60;99.90
25640;DHT22;13497;48.322;16.204;2023-05-07T08:56:12;19.40;99.90
25640;DHT22;13497;48.322;16.204;2023-05-07T08:58:38;19.50;99.90
25640;DHT22;13497;48.322;16.204;2023-05-07T09:01:08;19.60;99.90
25640;DHT22;13497;48.322;16.204;2023-05-07T09:03:34;19.90;99.90
25640;DHT22;13497;48.322;16.204;2023-05-07T09:06:00;20.00;99.90
25640;DHT22;13497;48.322;16.204;2023-05-07T09:08:29;20.20;99.90
25640;DHT22;13497;48.322;16.204;2023-05-07T09:10:55;20.30;99.90
25640;DHT22;13497;48.322;16.204;2023-05-07T09:13:21;20.10;99.90
25640;DHT22;13497;48.322;16.204;2023-05-07T09:15:46;19.90;99.90
25640;DHT22;13497;48.322;16.204;2023-05-07T09:18:12;20.10;99.90
25640;DHT22;13497;48.322;16.204;2023-05-07T09:20:40;20.30;99.80
25640;DHT22;13497;48.322;16.204;2023-05-07T09:23:07;20.30;99.90
25640;DHT22;13497;48.322;16.204;2023-05-07T09:25:34;20.50;99.20
25640;DHT22;13497;48.322;16.204;2023-05-07T09:28:04;20.50;99.30
25640;DHT22;13497;48.322;16.204;2023-05-07T09:30:32;20.40;98.80
25640;DHT22;13497;48.322;16.204;2023-05-07T09:33:00;20.40;98.90
25640;DHT22;13497;48.322;16.204;2023-05-07T09:35:26;19.90;99.10
25640;DHT22;13497;48.322;16.204;2023-05-07T09:37:59;19.90;99.30
25640;DHT22;13497;48.322;16.204;2023-05-07T09:40:29;20.20;98.90
25640;DHT22;13497;48.322;16.204;2023-05-07T09:42:55;20.40;99.20
25640;DHT22;13497;48.322;16.204;2023-05-07T09:45:22;20.70;99.00
25640;DHT22;13497;48.322;16.204;2023-05-07T09:47:49;20.80;99.00
25640;DHT22;13497;48.322;16.204;2023-05-07T09:50:19;20.70;98.30
25640;DHT22;13497;48.322;16.204;2023-05-07T09:52:47;20.70;98.90
25640;DHT22;13497;48.322;16.204;2023-05-07T09:55:13;20.60;98.90
25640;DHT22;13497;48.322;16.204;2023-05-07T09:57:40;20.70;98.50
25640;DHT22;13497;48.322;16.204;2023-05-07T10:00:07;20.80;98.50
25640;DHT22;13497;48.322;16.204;2023-05-07T10:02:35;20.80;98.80
25640;DHT22;13497;48.322;16.204;2023-05-07T10:05:02;20.40;98.80
25640;DHT22;13497;48.322;16.204;2023-05-07T10:07:29;20.20;99.20
25640;DHT22;13497;48.322;16.204;2023-05-07T10:09:55;20.20;99.50
25640;DHT22;13497;48.322;16.204;2023-05-07T10:12:21;20.30;99.10
25640;DHT22;13497;48.322;16.204;2023-05-07T10:14:47;20.30;98.70
25640;DHT22;13497;48.322;16.204;2023-05-07T10:17:16;20.10;99.10
25640;DHT22;13497;48.322;16.204;2023-05-07T10:19:44;20.30;98.50
25640;DHT22;13497;48.322;16.204;2023-05-07T10:22:11;20.30;98.30
25640;DHT22;13497;48.322;16.204;2023-05-07T10:24:37;20.60;98.50
25640;DHT22;13497;48.322;16.204;2023-05-07T10:27:12;20.70;98.30
25640;DHT22;13497;48.322;16.204;2023-05-07T10:32:47;21.00;98.10
25640;DHT22;13497;48.322;16.204;2023-05-07T10:35:40;21.20;97.50
25640;DHT22;13497;48.322;16.204;2023-05-07T10:38:06;21.00;97.00
25640;DHT22;13497;48.322;16.204;2023-05-07T10:40:33;21.00;97.00
25640;DHT22;13497;48.322;16.204;2023-05-07T10:43:08;21.10;97.40
25640;DHT22;13497;48.322;16.204;2023-05-07T10:45:34;21.40;96.40
25640;DHT22;13497;48.322;16.204;2023-05-07T10:48:16;21.20;96.40
25640;DHT22;13497;48.322;16.204;2023-05-07T10:50:43;21.10;96.80
25640;DHT22;13497;48.322;16.204;2023-05-07T10:55:48;20.60;97.60
25640;DHT22;13497;48.322;16.204;2023-05-07T10:58:24;20.40;98.10
25640;DHT22;13497;48.322;16.204;2023-05-07T11:00:59;20.20;97.80
25640;DHT22;13497;48.322;16.204;2023-05-07T11:03:28;20.20;98.10
25640;DHT22;13497;48.322;16.204;2023-05-07T11:06:16;20.10;97.60
25640;DHT22;13497;48.322;16.204;2023-05-07T11:08:57;20.40;97.40
25640;DHT22;13497;48.322;16.204;2023-05-07T11:11:49;20.60;97.30
25640;DHT22;13497;48.322;16.204;2023-05-07T11:17:08;20.70;97.30
25640;DHT22;13497;48.322;16.204;2023-05-07T11:19:54;20.70;96.60
25640;DHT22;13497;48.322;16.204;2023-05-07T11:25:07;20.40;97.80
25640;DHT22;13497;48.322;16.204;2023-05-07T11:27:33;20.20;97.20
25640;DHT22;13497;48.322;16.204;2023-05-07T11:29:59;20.20;97.30
25640;DHT22;13497;48.322;16.204;2023-05-07T11:32:28;20.30;97.40
25640;DHT22;13497;48.322;16.204;2023-05-07T11:34:55;20.30;97.20
25640;DHT22;13497;48.322;16.204;2023-05-07T11:37:23;20.50;97.20
25640;DHT22;13497;48.322;16.204;2023-05-07T11:39:49;20.80;97.50
25640;DHT22;13497;48.322;16.204;2023-05-07T11:42:29;20.90;96.90
25640;DHT22;13497;48.322;16.204;2023-05-07T11:44:55;20.80;97.20
25640;DHT22;13497;48.322;16.204;2023-05-07T11:47:21;20.60;97.00
25640;DHT22;13497;48.322;16.204;2023-05-07T11:49:52;20.40;97.10
25640;DHT22;13497;48.322;16.204;2023-05-07T11:52:19;20.50;96.90
25640;DHT22;13497;48.322;16.204;2023-05-07T11:54:55;20.50;97.30
25640;DHT22;13497;48.322;16.204;2023-05-07T11:57:23;20.60;97.20
25640;DHT22;13497;48.322;16.204;2023-05-07T11:59:53;20.60;97.30
25640;DHT22;13497;48.322;16.204;2023-05-07T12:02:19;20.60;96.80
25640;DHT22;13497;48.322;16.204;2023-05-07T12:04:44;20.60;97.00
25640;DHT22;13497;48.322;16.204;2023-05-07T12:07:14;20.50;97.10
25640;DHT22;13497;48.322;16.204;2023-05-07T12:09:41;20.10;97.50
25640;DHT22;13497;48.322;16.204;2023-05-07T12:12:06;20.00;97.90
25640;DHT22;13497;48.322;16.204;2023-05-07T12:14:32;19.90;97.70
25640;DHT22;13497;48.322;16.204;2023-05-07T12:16:59;19.80;97.80
25640;DHT22;13497;48.322;16.204;2023-05-07T12:19:29;19.70;97.60
25640;DHT22;13497;48.322;16.204;2023-05-07T12:21:55;19.80;98.10
25640;DHT22;13497;48.322;16.204;2023-05-07T12:24:21;20.00;97.90
25640;DHT22;13497;48.322;16.204;2023-05-07T12:26:48;20.00;97.70
25640;DHT22;13497;48.322;16.204;2023-05-07T12:29:14;20.10;97.30
25640;DHT22;13497;48.322;16.204;2023-05-07T12:31:41;20.10;97.30
25640;DHT22;13497;48.322;16.204;2023-05-07T12:34:07;20.20;97.70
25640;DHT22;13497;48.322;16.204;2023-05-07T12:36:40;20.30;97.20
25640;DHT22;13497;48.322;16.204;2023-05-07T12:39:09;20.50;97.10
25640;DHT22;13497;48.322;16.204;2023-05-07T12:44:25;20.40;96.50
25640;DHT22;13497;48.322;16.204;2023-05-07T12:46:54;20.30;96.60
25640;DHT22;13497;48.322;16.204;2023-05-07T12:49:20;20.20;96.50
25640;DHT22;13497;48.322;16.204;2023-05-07T12:51:47;20.00;96.90
25640;DHT22;13497;48.322;16.204;2023-05-07T12:54:13;20.00;96.50
25640;DHT22;13497;48.322;16.204;2023-05-07T12:56:39;19.90;96.80
25640;DHT22;13497;48.322;16.204;2023-05-07T12:59:05;20.00;96.30
25640;DHT22;13497;48.322;16.204;2023-05-07T13:01:34;20.00;97.00
25640;DHT22;13497;48.322;16.204;2023-05-07T13:04:03;20.20;95.90
25640;DHT22;13497;48.322;16.204;2023-05-07T13:06:30;20.30;96.20
25640;DHT22;13497;48.322;16.204;2023-05-07T13:08:56;20.60;96.10
25640;DHT22;13497;48.322;16.204;2023-05-07T13:11:22;20.80;95.60
25640;DHT22;13497;48.322;16.204;2023-05-07T13:13:48;21.00;95.40
25640;DHT22;13497;48.322;16.204;2023-05-07T13:16:13;20.80;95.50
25640;DHT22;13497;48.322;16.204;2023-05-07T13:18:40;20.60;95.90
25640;DHT22;13497;48.322;16.204;2023-05-07T13:21:06;20.40;96.20
25640;DHT22;13497;48.322;16.204;2023-05-07T13:23:31;20.50;96.10
25640;DHT22;13497;48.322;16.204;2023-05-07T13:25:57;20.00;96.00
25640;DHT22;13497;48.322;16.204;2023-05-07T13:28:24;19.70;96.50
25640;DHT22;13497;48.322;16.204;2023-05-07T13:30:51;19.80;96.70
25640;DHT22;13497;48.322;16.204;2023-05-07T13:33:17;20.10;96.00
25640;DHT22;13497;48.322;16.204;2023-05-07T13:35:43;20.40;96.20
25640;DHT22;13497;48.322;16.204;2023-05-07T13:38:09;20.60;95.80
25640;DHT22;13497;48.322;16.204;2023-05-07T13:40:35;20.60;95.80
25640;DHT22;13497;48.322;16.204;2023-05-07T13:43:01;20.80;95.50
25640;DHT22;13497;48.322;16.204;2023-05-07T13:45:30;20.60;95.10
25640;DHT22;13497;48.322;16.204;2023-05-07T13:47:56;20.60;95.50
25640;DHT22;13497;48.322;16.204;2023-05-07T13:50:22;20.40;95.50
25640;DHT22;13497;48.322;16.204;2023-05-07T13:52:48;20.30;95.60
25640;DHT22;13497;48.322;16.204;2023-05-07T13:55:20;20.30;95.90
25640;DHT22;13497;48.322;16.204;2023-05-07T13:57:47;20.40;95.50
25640;DHT22;13497;48.322;16.204;2023-05-07T14:00:13;20.60;95.70
25640;DHT22;13497;48.322;16.204;2023-05-07T14:02:39;20.80;95.10
25640;DHT22;13497;48.322;16.204;2023-05-07T14:05:05;20.90;95.20
25640;DHT22;13497;48.322;16.204;2023-05-07T14:07:30;21.10;95.10
25640;DHT22;13497;48.322;16.204;2023-05-07T14:09:57;21.30;94.50
25640;DHT22;13497;48.322;16.204;2023-05-07T14:12:22;21.30;94.50
25640;DHT22;13497;48.322;16.204;2023-05-07T14:14:48;21.20;94.50
25640;DHT22;13497;48.322;16.204;2023-05-07T14:17:18;21.40;93.90
25640;DHT22;13497;48.322;16.204;2023-05-07T14:19:44;21.40;93.90
25640;DHT22;13497;48.322;16.204;2023-05-07T14:22:10;21.30;94.20
25640;DHT22;13497;48.322;16.204;2023-05-07T14:24:36;21.40;93.60
25640;DHT22;13497;48.322;16.204;2023-05-07T14:27:01;21.30;93.90
25640;DHT22;13497;48.322;16.204;2023-05-07T14:29:28;21.50;93.90
25640;DHT22;13497;48.322;16.204;2023-05-07T14:31:54;21.90;93.30
25640;DHT22;13497;48.322;16.204;2023-05-07T14:34:19;21.60;93.80
25640;DHT22;13497;48.322;16.204;2023-05-07T14:36:45;21.20;94.50
25640;DHT22;13497;48.322;16.204;2023-05-07T14:39:11;21.00;94.80
25640;DHT22;13497;48.322;16.204;2023-05-07T14:41:36;20.70;94.80
25640;DHT22;13497;48.322;16.204;2023-05-07T14:44:02;20.40;95.40
25640;DHT22;13497;48.322;16.204;2023-05-07T14:46:30;20.50;95.40
25640;DHT22;13497;48.322;16.204;2023-05-07T14:48:56;20.50;95.50
25640;DHT22;13497;48.322;16.204;2023-05-07T14:51:22;20.50;96.10
25640;DHT22;13497;48.322;16.204;2023-05-07T14:53:50;20.50;95.80
25640;DHT22;13497;48.322;16.204;2023-05-07T14:56:16;20.50;95.40
25640;DHT22;13497;48.322;16.204;2023-05-07T14:58:42;20.40;95.60
25640;DHT22;13497;48.322;16.204;2023-05-07T15:01:08;20.20;95.80
25640;DHT22;13497;48.322;16.204;2023-05-07T15:03:34;20.10;96.20
25640;DHT22;13497;48.322;16.204;2023-05-07T15:06:00;20.20;96.10
25640;DHT22;13497;48.322;16.204;2023-05-07T15:08:26;20.20;95.90
25640;DHT22;13497;48.322;16.204;2023-05-07T15:10:51;20.00;96.00
25640;DHT22;13497;48.322;16.204;2023-05-07T15:13:17;19.90;96.00
25640;DHT22;13497;48.322;16.204;2023-05-07T15:15:44;19.90;95.70
25640;DHT22;13497;48.322;16.204;2023-05-07T15:18:10;19.80;96.10
25640;DHT22;13497;48.322;16.204;2023-05-07T15:20:36;19.70;96.10
25640;DHT22;13497;48.322;16.204;2023-05-07T15:23:02;19.60;96.40
25640;DHT22;13497;48.322;16.204;2023-05-07T15:25:30;19.70;96.20
25640;DHT22;13497;48.322;16.204;2023-05-07T15:27:56;19.40;96.20